Time;durP1;ratioP1;P1;durP2;ratioP2;P2;SDS_P1;SDS_P2;PMS_P1;PMS_P2;Temp;Humidity;BMP_temperature;BMP_pressure;BME280_temperature;BME280_humidity;BME280_pressure;Samples;Min_cycle;Max_cycle;Signal;HPM_P1;HPM_P2
2022/11/12 00:00:01;;;;;;;;;;;;;;;;;;5072502;28;20366;-71
2022/11/12 00:02:27;;;;;;;;;;;;;;;;;;5060127;28;19925;-71
2022/11/12 00:04:52;;;;;;;;;;;;;;;;;;5050247;28;19925;-71
2022/11/12 00:07:18;;;;;;;;;;;8.30;99.90;;;;;;5069875;28;19920;-71
2022/11/12 00:09:43;;;;;;;;;;;8.30;99.90;;;;;;5054728;28;19973;-71
2022/11/12 00:12:09;;;;;;;;;;;8.40;99.90;;;;;;5070124;28;19920;-71
2022/11/12 00:14:34;;;;;;;;;;;8.30;99.90;;;;;;5053453;28;19920;-71
2022/11/12 00:17:00;;;;;;;;;;;8.20;99.90;;;;;;5072373;28;20305;-71
2022/11/12 00:19:25;;;;;;;;;;;8.20;99.90;;;;;;5066071;28;19982;-71
2022/11/12 00:21:51;;;;;;;;;;;8.20;99.90;;;;;;5050799;28;20402;-71
2022/11/12 00:24:16;;;;;;;;;;;8.30;99.90;;;;;;5050101;28;19979;-72
2022/11/12 00:26:42;;;;;;;;;;;;;;;;;;5050807;28;19921;-71
2022/11/12 00:29:07;;;;;;;;;;;8.10;99.90;;;;;;5051923;28;19943;-73
2022/11/12 00:31:33;;;;;;;;;;;7.90;99.90;;;;;;5052099;28;19920;-72
2022/11/12 00:33:59;;;;;;;;;;;8.00;99.90;;;;;;5033750;28;19943;-72
2022/11/12 00:36:24;;;;;;;;;;;;;;;;;;5051777;28;19920;-72
2022/11/12 00:38:50;;;;;;;;;;;;;;;;;;5066423;28;19928;-72
2022/11/12 00:41:16;;;;;;;;;;;;;;;;;;5072295;28;19928;-72
2022/11/12 00:43:42;;;;;;;;;;;;;;;;;;5053916;28;19925;-72
2022/11/12 00:46:08;;;;;;;;;;;;;;;;;;5070535;28;20286;-73
2022/11/12 00:48:34;;;;;;;;;;;;;;;;;;5070912;28;20401;-72
2022/11/12 00:51:00;;;;;;;;;;;;;;;;;;5053815;28;19928;-72
2022/11/12 00:53:26;;;;;;;;;;;;;;;;;;5052520;28;19920;-72
2022/11/12 00:55:52;;;;;;;;;;;;;;;;;;5054616;28;19928;-72
2022/11/12 00:58:17;;;;;;;;;;;;;;;;;;5058613;28;19943;-72
2022/11/12 01:00:43;;;;;;;;;;;;;;;;;;5059912;28;19967;-73
2022/11/12 01:03:09;;;;;;;;;;;;;;;;;;5056577;28;20085;-72
2022/11/12 01:05:35;;;;;;;;;;;;;;;;;;5050653;28;20394;-72
2022/11/12 01:08:01;;;;;;;;;;;;;;;;;;5040757;28;20305;-72
2022/11/12 01:10:27;;;;;;;;;;;;;;;;;;5073533;28;19978;-73
2022/11/12 01:12:53;;;;;;;;;;;;;;;;;;5075947;28;19968;-72
2022/11/12 01:15:18;;;;;;;;;;;7.90;99.90;;;;;;5074144;28;19927;-72
2022/11/12 01:17:44;;;;;;;;;;;7.90;99.90;;;;;;5074666;28;19920;-73
2022/11/12 01:20:10;;;;;;;;;;;;;;;;;;5057726;28;19982;-74
2022/11/12 01:22:35;;;;;;;;;;;;;;;;;;5074457;28;19921;-73
2022/11/12 01:25:01;;;;;;;;;;;7.80;99.90;;;;;;5073247;28;20322;-74
2022/11/12 01:27:26;;;;;;;;;;;7.70;99.90;;;;;;5075122;28;20003;-73
2022/11/12 01:29:52;;;;;;;;;;;;;;;;;;5075873;28;20003;-74
2022/11/12 01:32:18;;;;;;;;;;;;;;;;;;5074237;28;19920;-73
2022/11/12 01:34:44;;;;;;;;;;;;;;;;;;5073518;28;20012;-74
2022/11/12 01:37:10;;;;;;;;;;;7.80;99.90;;;;;;5075483;28;19926;-73
2022/11/12 01:39:35;;;;;;;;;;;7.70;99.90;;;;;;5074619;28;20371;-73
2022/11/12 01:42:01;;;;;;;;;;;;;;;;;;5072935;28;19931;-72
2022/11/12 01:44:28;;;;;;;;;;;;;;;;;;5075050;28;19928;-72
2022/11/12 01:46:53;;;;;;;;;;;;;;;;;;5075227;28;19920;-71
2022/11/12 01:49:19;;;;;;;;;;;;;;;;;;5056809;28;19921;-71
2022/11/12 01:51:45;;;;;;;;;;;;;;;;;;5074842;28;19929;-71
2022/11/12 01:54:12;;;;;;;;;;;7.60;99.90;;;;;;5074311;28;19928;-71
2022/11/12 01:56:38;;;;;;;;;;;;;;;;;;5066810;28;20460;-71
2022/11/12 01:59:06;;;;;;;;;;;7.70;99.90;;;;;;5065591;28;19921;-71
2022/11/12 02:01:32;;;;;;;;;;;;;;;;;;5074881;28;20382;-71
2022/11/12 02:03:58;;;;;;;;;;;7.70;99.90;;;;;;5072809;28;19935;-71
2022/11/12 02:06:23;;;;;;;;;;;7.60;99.90;;;;;;5074791;28;19924;-71
2022/11/12 02:08:49;;;;;;;;;;;7.60;99.90;;;;;;5075933;28;19927;-71
2022/11/12 02:11:15;;;;;;;;;;;;;;;;;;5059373;28;19928;-72
2022/11/12 02:14:00;;;;;;;;;;;;;;;;;;5054879;28;20343;-71
2022/11/12 02:16:25;;;;;;;;;;;7.60;99.90;;;;;;5052766;28;20405;-70
2022/11/12 02:18:51;;;;;;;;;;;7.40;99.90;;;;;;5063637;28;19921;-72
2022/11/12 02:21:20;;;;;;;;;;;7.60;99.90;;;;;;5072918;28;19971;-72
2022/11/12 02:23:46;;;;;;;;;;;7.60;99.90;;;;;;5075138;28;19986;-71
2022/11/12 02:26:12;;;;;;;;;;;;;;;;;;5069620;28;19920;-74
2022/11/12 02:28:37;;;;;;;;;;;7.50;99.90;;;;;;5053344;28;19925;-72
2022/11/12 02:31:03;;;;;;;;;;;7.30;99.90;;;;;;5053828;28;19932;-72
2022/11/12 02:33:28;;;;;;;;;;;;;;;;;;5054100;28;19920;-72
2022/11/12 02:35:54;;;;;;;;;;;;;;;;;;5052543;28;19921;-71
2022/11/12 02:38:20;;;;;;;;;;;7.60;99.90;;;;;;5054292;28;19947;-71
2022/11/12 02:40:45;;;;;;;;;;;7.40;99.90;;;;;;5054083;28;20000;-71
2022/11/12 02:43:11;;;;;;;;;;;7.40;99.90;;;;;;5053617;28;19931;-71
2022/11/12 02:45:36;;;;;;;;;;;7.50;99.90;;;;;;5035077;28;19932;-71
2022/11/12 02:48:02;;;;;;;;;;;7.50;99.90;;;;;;5035931;28;20306;-71
2022/11/12 02:50:27;;;;;;;;;;;7.30;99.90;;;;;;5036031;28;19924;-72
2022/11/12 02:52:53;;;;;;;;;;;7.40;99.90;;;;;;5063750;28;19971;-71
2022/11/12 02:55:18;;;;;;;;;;;7.40;99.90;;;;;;5072060;28;19921;-71
2022/11/12 02:57:44;;;;;;;;;;;7.40;99.90;;;;;;5073624;28;19927;-72
2022/11/12 03:00:10;;;;;;;;;;;7.30;99.90;;;;;;5038597;28;19920;-71
2022/11/12 03:02:42;;;;;;;;;;;7.40;99.90;;;;;;5052537;28;19921;-71
2022/11/12 03:05:10;;;;;;;;;;;7.30;99.90;;;;;;5052767;28;19931;-71
2022/11/12 03:07:36;;;;;;;;;;;;;;;;;;5052469;28;20400;-72
2022/11/12 03:10:03;;;;;;;;;;;7.30;99.90;;;;;;5053488;28;19971;-71
2022/11/12 03:12:29;;;;;;;;;;;7.30;99.90;;;;;;5053627;28;19920;-71
2022/11/12 03:14:55;;;;;;;;;;;;;;;;;;5053906;28;19928;-71
2022/11/12 03:17:21;;;;;;;;;;;;;;;;;;5035522;28;19927;-71
2022/11/12 03:19:47;;;;;;;;;;;;;;;;;;5052063;28;19943;-71
2022/11/12 03:22:12;;;;;;;;;;;7.10;99.90;;;;;;5054690;28;19952;-71
2022/11/12 03:24:38;;;;;;;;;;;;;;;;;;5041643;28;19924;-71
2022/11/12 03:27:04;;;;;;;;;;;;;;;;;;5074213;28;20019;-72
2022/11/12 03:29:30;;;;;;;;;;;;;;;;;;5062767;28;19920;-71
2022/11/12 03:31:55;;;;;;;;;;;7.50;99.90;;;;;;5076730;28;19920;-71
2022/11/12 03:34:21;;;;;;;;;;;7.50;99.90;;;;;;5070531;28;19924;-72
2022/11/12 03:36:46;;;;;;;;;;;7.40;99.90;;;;;;5072033;28;20310;-72
2022/11/12 03:39:12;;;;;;;;;;;;;;;;;;5071949;28;20377;-73
2022/11/12 03:41:38;;;;;;;;;;;7.60;99.90;;;;;;5055523;28;19928;-72
2022/11/12 03:44:03;;;;;;;;;;;7.60;99.90;;;;;;5070844;28;19925;-73
2022/11/12 03:46:28;;;;;;;;;;;7.60;99.90;;;;;;5071933;28;20290;-72
2022/11/12 03:48:54;;;;;;;;;;;;;;;;;;5057345;28;20006;-72
2022/11/12 03:51:21;;;;;;;;;;;7.70;99.90;;;;;;5053057;28;20303;-72
2022/11/12 03:53:46;;;;;;;;;;;7.90;99.90;;;;;;5051123;28;20173;-72
2022/11/12 03:56:12;;;;;;;;;;;8.10;99.90;;;;;;5051132;28;20333;-72
2022/11/12 03:58:37;;;;;;;;;;;8.20;99.90;;;;;;5051660;28;19920;-72
2022/11/12 04:01:03;;;;;;;;;;;8.10;99.90;;;;;;5052881;28;20379;-72
2022/11/12 04:03:28;;;;;;;;;;;;;;;;;;5051161;28;19925;-71
2022/11/12 04:08:38;;;;;;;;;;;;;;;;;;5051099;28;19928;-72
2022/11/12 04:11:04;;;;;;;;;;;;;;;;;;5034444;28;19921;-73
2022/11/12 04:13:30;;;;;;;;;;;8.00;99.90;;;;;;5052717;28;19921;-72
2022/11/12 04:21:53;;;;;;;;;;;8.10;99.90;;;;;;5052171;28;20382;-72
2022/11/12 04:27:04;;;;;;;;;;;;;;;;;;5051002;28;19928;-72
2022/11/12 04:32:13;;;;;;;;;;;8.20;99.90;;;;;;5050790;28;20453;-71
2022/11/12 04:34:39;;;;;;;;;;;8.30;99.90;;;;;;5051210;28;20007;-72
2022/11/12 04:37:05;;;;;;;;;;;8.00;99.90;;;;;;5053049;28;19927;-72
2022/11/12 04:39:30;;;;;;;;;;;8.10;99.90;;;;;;5052182;28;19967;-71
2022/11/12 04:45:00;;;;;;;;;;;;;;;;;;5051767;28;20337;-72
2022/11/12 04:47:26;;;;;;;;;;;8.20;99.90;;;;;;5054833;28;19928;-72
2022/11/12 04:49:52;;;;;;;;;;;8.20;99.90;;;;;;5054963;28;19927;-73
2022/11/12 04:52:17;;;;;;;;;;;8.30;99.90;;;;;;5054985;28;19921;-71
2022/11/12 04:54:43;;;;;;;;;;;8.10;99.90;;;;;;5064425;28;19927;-71
2022/11/12 04:57:09;;;;;;;;;;;;;;;;;;5074824;28;19921;-72
2022/11/12 04:59:34;;;;;;;;;;;8.50;99.90;;;;;;5076074;28;19920;-71
2022/11/12 05:02:00;;;;;;;;;;;8.50;99.90;;;;;;5074700;28;19952;-72
2022/11/12 05:04:28;;;;;;;;;;;8.20;99.90;;;;;;5074935;28;19932;-72
2022/11/12 05:06:57;;;;;;;;;;;8.20;99.90;;;;;;5074500;28;19920;-72
2022/11/12 05:09:24;;;;;;;;;;;8.80;99.90;;;;;;5074095;28;19921;-72
2022/11/12 05:11:50;;;;;;;;;;;8.60;99.90;;;;;;5054668;28;19944;-73
2022/11/12 05:14:15;;;;;;;;;;;8.50;99.90;;;;;;5053724;28;20375;-72
2022/11/12 05:16:41;;;;;;;;;;;8.60;99.90;;;;;;5054723;28;19927;-72
2022/11/12 05:19:07;;;;;;;;;;;8.40;99.90;;;;;;5038201;28;19983;-72
2022/11/12 05:24:17;;;;;;;;;;;8.40;99.90;;;;;;5053614;28;19935;-72
2022/11/12 05:26:42;;;;;;;;;;;8.60;99.90;;;;;;5055348;28;19921;-73
2022/11/12 05:29:08;;;;;;;;;;;8.30;99.90;;;;;;5054468;28;19925;-73
2022/11/12 05:31:34;;;;;;;;;;;;;;;;;;5054089;28;20383;-72
2022/11/12 05:33:59;;;;;;;;;;;8.50;99.90;;;;;;5036707;28;20371;-72
2022/11/12 05:36:25;;;;;;;;;;;8.50;99.90;;;;;;5065170;28;19928;-72
2022/11/12 05:38:50;;;;;;;;;;;8.50;99.90;;;;;;5074526;28;19984;-72
2022/11/12 05:41:16;;;;;;;;;;;;;;;;;;5075572;28;19932;-70
2022/11/12 05:43:42;;;;;;;;;;;8.50;99.90;;;;;;5061029;28;20399;-72
2022/11/12 05:46:07;;;;;;;;;;;8.50;99.90;;;;;;5054719;28;19920;-73
2022/11/12 05:48:33;;;;;;;;;;;8.50;99.90;;;;;;5062045;28;19921;-72
2022/11/12 05:50:59;;;;;;;;;;;;;;;;;;5062934;28;20386;-72
2022/11/12 05:53:24;;;;;;;;;;;8.70;99.90;;;;;;5063562;28;19928;-72
2022/11/12 05:55:50;;;;;;;;;;;8.50;99.90;;;;;;5061677;28;19921;-72
2022/11/12 05:58:15;;;;;;;;;;;8.40;99.90;;;;;;5056651;28;19925;-72
2022/11/12 06:00:41;;;;;;;;;;;8.30;99.90;;;;;;5068101;28;20387;-72
2022/11/12 06:03:07;;;;;;;;;;;;;;;;;;5053697;28;19932;-73
2022/11/12 06:05:32;;;;;;;;;;;8.60;99.90;;;;;;5052819;28;19964;-72
2022/11/12 06:07:58;;;;;;;;;;;8.40;99.90;;;;;;5053813;28;20290;-72
2022/11/12 06:10:23;;;;;;;;;;;8.60;99.90;;;;;;5053528;28;20011;-73
2022/11/12 06:12:49;;;;;;;;;;;8.30;99.90;;;;;;5053767;28;19943;-72
2022/11/12 06:15:14;;;;;;;;;;;8.50;99.90;;;;;;5054045;28;20039;-72
2022/11/12 06:17:40;;;;;;;;;;;8.60;99.90;;;;;;5036865;28;19921;-72
2022/11/12 06:20:06;;;;;;;;;;;8.30;99.90;;;;;;5053934;28;19921;-72
2022/11/12 06:22:32;;;;;;;;;;;8.50;99.90;;;;;;5053752;28;19924;-72
2022/11/12 06:24:57;;;;;;;;;;;8.30;99.90;;;;;;5054213;28;19936;-72
2022/11/12 06:27:23;;;;;;;;;;;8.40;99.90;;;;;;5054694;28;19924;-72
2022/11/12 06:29:48;;;;;;;;;;;8.20;99.90;;;;;;5072594;22;19948;-71
2022/11/12 06:32:14;;;;;;;;;;;8.20;99.90;;;;;;5048734;28;19967;-70
2022/11/12 06:34:39;;;;;;;;;;;8.30;99.90;;;;;;5051827;28;19921;-71
2022/11/12 06:37:05;;;;;;;;;;;8.20;99.90;;;;;;5052383;28;19921;-71
2022/11/12 06:39:30;;;;;;;;;;;8.30;99.90;;;;;;5036623;28;19952;-71
2022/11/12 06:41:55;;;;;;;;;;;8.10;99.90;;;;;;5053651;28;20383;-71
2022/11/12 06:44:21;;;;;;;;;;;8.40;99.90;;;;;;5035121;28;19928;-70
2022/11/12 06:46:46;;;;;;;;;;;8.20;99.90;;;;;;5052475;28;20398;-71
2022/11/12 06:49:12;;;;;;;;;;;8.40;99.90;;;;;;5053427;28;19971;-70
2022/11/12 06:51:40;;;;;;;;;;;8.30;99.90;;;;;;5052526;28;19975;-71
2022/11/12 06:54:06;;;;;;;;;;;;;;;;;;5052912;28;19920;-70
2022/11/12 06:56:32;;;;;;;;;;;8.40;99.90;;;;;;5052415;28;19928;-70
2022/11/12 06:58:57;;;;;;;;;;;8.40;99.90;;;;;;5051934;28;19924;-70
2022/11/12 07:01:23;;;;;;;;;;;8.40;99.90;;;;;;5045213;28;20383;-70
2022/11/12 07:03:52;;;;;;;;;;;8.40;99.90;;;;;;5038977;28;19944;-69
2022/11/12 07:06:19;;;;;;;;;;;8.30;99.90;;;;;;5052077;28;20329;-70
2022/11/12 07:08:48;;;;;;;;;;;8.30;99.90;;;;;;5049635;28;20135;-70
2022/11/12 07:11:14;;;;;;;;;;;8.30;99.90;;;;;;5050087;28;20390;-70
2022/11/12 07:13:40;;;;;;;;;;;;;;;;;;5045437;28;19935;-68
2022/11/12 07:16:06;;;;;;;;;;;8.20;99.90;;;;;;5061421;28;19935;-71
2022/11/12 07:18:33;;;;;;;;;;;8.00;99.90;;;;;;5036794;28;20012;-71
2022/11/12 07:20:59;;;;;;;;;;;8.20;99.90;;;;;;5051183;28;19925;-70
2022/11/12 07:23:25;;;;;;;;;;;8.20;99.90;;;;;;5048505;28;19971;-71
2022/11/12 07:25:57;;;;;;;;;;;8.20;99.90;;;;;;5030435;28;19978;-71
2022/11/12 07:28:23;;;;;;;;;;;8.60;99.90;;;;;;5030988;28;19921;-70
2022/11/12 07:30:56;;;;;;;;;;;8.30;99.90;;;;;;5039565;28;19921;-71
2022/11/12 07:33:21;;;;;;;;;;;8.20;99.90;;;;;;5042861;28;19968;-71
2022/11/12 07:35:47;;;;;;;;;;;8.40;99.90;;;;;;5033117;28;19972;-70
2022/11/12 07:38:12;;;;;;;;;;;8.40;99.90;;;;;;5055290;28;19921;-70
2022/11/12 07:40:38;;;;;;;;;;;8.30;99.90;;;;;;5070278;28;20386;-70
2022/11/12 07:43:03;;;;;;;;;;;8.30;99.90;;;;;;5071200;28;19936;-71
2022/11/12 07:45:29;;;;;;;;;;;8.30;99.90;;;;;;5069457;28;20019;-71
2022/11/12 07:47:57;;;;;;;;;;;8.60;99.90;;;;;;5069371;28;19920;-70
2022/11/12 07:50:22;;;;;;;;;;;8.40;99.90;;;;;;5049926;28;20335;-71
2022/11/12 07:52:48;;;;;;;;;;;8.40;99.90;;;;;;5048019;28;19979;-71
2022/11/12 07:55:13;;;;;;;;;;;8.20;99.90;;;;;;5042471;28;19921;-71
2022/11/12 07:57:39;;;;;;;;;;;8.40;99.90;;;;;;5050004;28;20007;-71
2022/11/12 08:00:05;;;;;;;;;;;8.30;99.90;;;;;;5050301;28;20271;-71
2022/11/12 08:02:31;;;;;;;;;;;8.30;99.90;;;;;;5049673;28;20390;-71
2022/11/12 08:04:56;;;;;;;;;;;8.20;99.90;;;;;;5049964;28;19931;-71
2022/11/12 08:07:22;;;;;;;;;;;8.40;99.90;;;;;;5051953;28;19924;-69
2022/11/12 08:09:47;;;;;;;;;;;8.40;99.90;;;;;;5034227;28;19928;-70
2022/11/12 08:12:13;;;;;;;;;;;8.50;99.90;;;;;;5051153;28;19989;-71
2022/11/12 08:14:38;;;;;;;;;;;8.40;99.90;;;;;;5031865;28;19991;-70
2022/11/12 08:17:04;;;;;;;;;;;;;;;;;;5048874;28;19943;-71
2022/11/12 08:19:30;;;;;;;;;;;8.60;99.90;;;;;;5049772;28;20003;-71
2022/11/12 08:21:55;;;;;;;;;;;8.60;99.90;;;;;;5051366;28;19925;-71
2022/11/12 08:24:21;;;;;;;;;;;8.70;99.90;;;;;;5049945;28;20039;-71
2022/11/12 08:26:46;;;;;;;;;;;8.80;99.90;;;;;;5051560;28;19948;-70
2022/11/12 08:29:12;;;;;;;;;;;8.60;99.90;;;;;;5049845;28;20003;-71
2022/11/12 08:31:37;;;;;;;;;;;8.60;99.90;;;;;;5051141;28;19927;-71
2022/11/12 08:34:10;;;;;;;;;;;8.50;99.90;;;;;;5051457;28;20291;-71
2022/11/12 08:36:36;;;;;;;;;;;8.90;99.90;;;;;;5050924;28;20383;-71
2022/11/12 08:39:02;;;;;;;;;;;8.70;99.90;;;;;;5050978;28;20231;-71
2022/11/12 08:41:27;;;;;;;;;;;8.60;99.90;;;;;;5060235;28;19925;-71
2022/11/12 08:43:53;;;;;;;;;;;;;;;;;;5063591;28;20015;-68
2022/11/12 08:46:19;;;;;;;;;;;8.90;99.90;;;;;;5061266;28;20325;-71
2022/11/12 08:48:44;;;;;;;;;;;8.80;99.90;;;;;;5035766;28;19928;-71
2022/11/12 08:51:10;;;;;;;;;;;8.90;99.90;;;;;;5049170;28;20412;-71
2022/11/12 08:53:35;;;;;;;;;;;8.90;99.90;;;;;;5048384;28;19928;-71
2022/11/12 08:56:01;;;;;;;;;;;8.80;99.90;;;;;;5040729;28;20015;-70
2022/11/12 08:58:27;;;;;;;;;;;9.00;99.90;;;;;;5049554;28;19994;-70
2022/11/12 09:00:53;;;;;;;;;;;8.80;99.90;;;;;;5050045;28;20007;-71
2022/11/12 09:03:19;;;;;;;;;;;8.90;99.90;;;;;;5047414;28;19999;-71
2022/11/12 09:05:45;;;;;;;;;;;9.20;99.90;;;;;;5031905;28;19991;-71
2022/11/12 09:08:11;;;;;;;;;;;9.10;99.90;;;;;;5031363;28;20375;-71
2022/11/12 09:10:37;;;;;;;;;;;9.10;99.90;;;;;;5031942;28;19987;-71
2022/11/12 09:13:02;;;;;;;;;;;9.20;99.90;;;;;;5050177;28;20395;-71
2022/11/12 09:15:30;;;;;;;;;;;9.00;99.90;;;;;;5038502;28;19928;-70
2022/11/12 09:18:00;;;;;;;;;;;9.00;99.90;;;;;;5048800;28;20445;-70
2022/11/12 09:20:27;;;;;;;;;;;8.90;99.90;;;;;;5044082;28;19924;-70
2022/11/12 09:22:53;;;;;;;;;;;;;;;;;;5042514;28;19921;-70
2022/11/12 09:25:18;;;;;;;;;;;9.30;99.90;;;;;;5045182;28;19925;-71
2022/11/12 09:27:44;;;;;;;;;;;;;;;;;;5028482;28;19936;-70
2022/11/12 09:30:10;;;;;;;;;;;9.10;99.90;;;;;;5033214;28;19960;-70
2022/11/12 09:32:35;;;;;;;;;;;9.20;99.90;;;;;;5037958;28;19964;-71
2022/11/12 09:35:01;;;;;;;;;;;;;;;;;;5052359;28;19921;-70
2022/11/12 09:37:27;;;;;;;;;;;9.30;99.90;;;;;;5048091;28;19976;-70
2022/11/12 09:39:53;;;;;;;;;;;;;;;;;;5049506;28;19925;-70
2022/11/12 09:42:19;;;;;;;;;;;9.50;99.90;;;;;;5049739;28;20474;-71
2022/11/12 09:44:50;;;;;;;;;;;9.50;99.90;;;;;;5042695;28;20980;-71
2022/11/12 09:47:22;;;;;;;;;;;9.50;99.90;;;;;;5041102;28;19963;-72
2022/11/12 09:49:56;;;;;;;;;;;9.50;99.90;;;;;;5038953;28;19935;-71
2022/11/12 09:52:25;;;;;;;;;;;9.40;99.90;;;;;;5033145;28;19932;-71
2022/11/12 09:54:57;;;;;;;;;;;9.30;99.90;;;;;;5059013;28;19931;-71
2022/11/12 09:57:22;;;;;;;;;;;9.50;99.90;;;;;;5042519;28;19921;-70
2022/11/12 09:59:48;;;;;;;;;;;9.60;99.90;;;;;;5049824;28;19925;-71
2022/11/12 10:02:32;;;;;;;;;;;9.50;99.90;;;;;;5037142;28;20004;-71
2022/11/12 10:05:14;;;;;;;;;;;9.30;99.90;;;;;;5043257;28;19960;-71
2022/11/12 10:07:46;;;;;;;;;;;9.40;99.90;;;;;;5046480;28;19925;-70
2022/11/12 10:10:16;;;;;;;;;;;9.40;99.90;;;;;;5051528;28;19932;-70
2022/11/12 10:12:47;;;;;;;;;;;9.30;99.90;;;;;;5033996;28;20399;-70
2022/11/12 10:18:03;;;;;;;;;;;9.20;99.90;;;;;;5032416;28;19925;-69
2022/11/12 10:20:31;;;;;;;;;;;9.40;99.90;;;;;;5034409;28;19925;-71
2022/11/12 10:23:07;;;;;;;;;;;9.10;99.90;;;;;;5031391;28;19929;-71
2022/11/12 10:25:34;;;;;;;;;;;9.20;99.90;;;;;;5038520;28;20426;-72
2022/11/12 10:28:00;;;;;;;;;;;9.50;99.90;;;;;;5048812;28;19925;-70
2022/11/12 10:30:26;;;;;;;;;;;9.20;99.90;;;;;;5049445;28;22458;-71
2022/11/12 10:32:52;;;;;;;;;;;9.40;99.90;;;;;;5049707;28;19925;-71
2022/11/12 10:35:19;;;;;;;;;;;9.30;99.90;;;;;;5046693;28;20443;-71
2022/11/12 10:37:45;;;;;;;;;;;;;;;;;;5049070;28;19924;-71
2022/11/12 10:40:20;;;;;;;;;;;9.80;99.90;;;;;;5048328;28;20376;-71
2022/11/12 10:42:55;;;;;;;;;;;9.50;99.90;;;;;;5047356;28;20457;-70
2022/11/12 10:45:21;;;;;;;;;;;9.60;99.90;;;;;;5031011;28;19932;-71
2022/11/12 10:47:47;;;;;;;;;;;9.50;99.90;;;;;;5042941;28;19929;-70
2022/11/12 10:50:12;;;;;;;;;;;9.30;99.90;;;;;;5035352;28;19932;-71
2022/11/12 10:52:38;;;;;;;;;;;9.30;99.90;;;;;;5047539;28;19931;-70
2022/11/12 10:55:22;;;;;;;;;;;9.60;99.90;;;;;;5047435;28;20418;-70
2022/11/12 10:58:05;;;;;;;;;;;9.60;99.90;;;;;;5048043;28;19932;-70
2022/11/12 11:00:30;;;;;;;;;;;9.30;99.90;;;;;;5042116;28;19928;-70
2022/11/12 11:02:56;;;;;;;;;;;9.70;99.90;;;;;;5045491;28;19925;-70
2022/11/12 11:05:25;;;;;;;;;;;9.60;99.90;;;;;;5041743;28;19921;-71
2022/11/12 11:07:50;;;;;;;;;;;9.50;99.90;;;;;;5037480;28;20080;-72
2022/11/12 11:10:23;;;;;;;;;;;9.60;99.90;;;;;;5021485;28;20419;-70
2022/11/12 11:12:50;;;;;;;;;;;9.60;99.90;;;;;;5041142;28;19932;-70
2022/11/12 11:15:20;;;;;;;;;;;9.50;99.90;;;;;;5042974;28;19933;-70
2022/11/12 11:17:46;;;;;;;;;;;;;;;;;;5038187;28;19955;-70
2022/11/12 11:20:17;;;;;;;;;;;9.70;99.90;;;;;;5040482;28;20374;-70
2022/11/12 11:22:48;;;;;;;;;;;9.50;99.90;;;;;;5050004;28;19921;-70
2022/11/12 11:25:26;;;;;;;;;;;9.60;99.90;;;;;;5047191;28;20012;-70
2022/11/12 11:27:52;;;;;;;;;;;9.80;99.90;;;;;;5048360;28;19975;-71
2022/11/12 11:30:18;;;;;;;;;;;9.50;99.90;;;;;;5046512;28;19928;-71
2022/11/12 11:32:55;;;;;;;;;;;9.70;99.90;;;;;;5047180;28;19924;-71
2022/11/12 11:35:39;;;;;;;;;;;9.60;99.90;;;;;;5049426;28;19921;-71
2022/11/12 11:38:14;;;;;;;;;;;9.90;99.90;;;;;;5048636;28;19928;-71
2022/11/12 11:40:46;;;;;;;;;;;9.60;99.90;;;;;;5045089;28;19925;-71
2022/11/12 11:43:15;;;;;;;;;;;9.90;99.90;;;;;;5037350;28;20338;-71
2022/11/12 11:45:40;;;;;;;;;;;;;;;;;;5047499;28;19932;-70
2022/11/12 11:48:19;;;;;;;;;;;9.80;99.90;;;;;;5024500;28;19925;-71
2022/11/12 11:50:51;;;;;;;;;;;10.10;99.90;;;;;;5034773;28;20059;-70
2022/11/12 11:53:19;;;;;;;;;;;10.10;99.90;;;;;;5046279;28;19921;-69
2022/11/12 11:55:48;;;;;;;;;;;10.00;99.90;;;;;;5050386;28;20023;-69
2022/11/12 11:58:29;;;;;;;;;;;9.80;99.90;;;;;;5051229;28;19921;-71
2022/11/12 12:01:08;;;;;;;;;;;10.20;99.90;;;;;;5051258;28;19925;-71
2022/11/12 12:03:39;;;;;;;;;;;10.10;99.90;;;;;;5050373;28;20015;-71
2022/11/12 12:06:18;;;;;;;;;;;10.20;99.90;;;;;;5050341;28;19929;-70
2022/11/12 12:08:46;;;;;;;;;;;10.00;99.90;;;;;;5051196;28;19920;-70
2022/11/12 12:11:24;;;;;;;;;;;10.10;99.90;;;;;;5052214;28;19935;-70
2022/11/12 12:13:59;;;;;;;;;;;10.10;99.90;;;;;;5049620;28;20362;-70
2022/11/12 12:16:29;;;;;;;;;;;10.00;99.90;;;;;;5033994;28;19928;-71
2022/11/12 12:19:04;;;;;;;;;;;10.10;99.90;;;;;;5050920;28;19921;-71
2022/11/12 12:21:31;;;;;;;;;;;9.90;99.90;;;;;;5034309;28;19975;-71
2022/11/12 12:24:01;;;;;;;;;;;10.10;99.90;;;;;;5033381;28;19921;-70
2022/11/12 12:26:46;;;;;;;;;;;10.10;99.90;;;;;;5051994;28;19925;-71
2022/11/12 12:29:15;;;;;;;;;;;10.10;99.90;;;;;;5078359;22;19954;-72
2022/11/12 12:31:46;;;;;;;;;;;10.20;99.90;;;;;;5051222;28;20342;-72
2022/11/12 12:34:18;;;;;;;;;;;10.30;99.90;;;;;;5050214;28;19970;-71
2022/11/12 12:36:43;;;;;;;;;;;10.40;99.90;;;;;;5052148;28;20375;-71
2022/11/12 12:39:18;;;;;;;;;;;10.60;99.90;;;;;;5051862;28;19963;-72
2022/11/12 12:41:48;;;;;;;;;;;10.80;99.90;;;;;;5072346;28;19921;-72
2022/11/12 12:44:14;;;;;;;;;;;10.70;99.90;;;;;;5068434;28;19924;-71
2022/11/12 12:46:49;;;;;;;;;;;10.90;99.90;;;;;;5071097;28;19950;-71
2022/11/12 12:49:22;;;;;;;;;;;11.00;99.90;;;;;;5070380;28;19920;-72
2022/11/12 12:51:47;;;;;;;;;;;10.80;99.90;;;;;;5070813;28;20445;-72
2022/11/12 12:54:31;;;;;;;;;;;10.90;99.90;;;;;;5070014;28;19975;-72
2022/11/12 12:56:57;;;;;;;;;;;11.00;99.90;;;;;;5072169;28;19928;-72
2022/11/12 12:59:23;;;;;;;;;;;10.70;99.90;;;;;;5068960;28;19950;-71
2022/11/12 13:01:56;;;;;;;;;;;10.70;99.90;;;;;;5058867;28;20409;-73
2022/11/12 13:04:40;;;;;;;;;;;10.70;99.90;;;;;;5053699;28;19955;-72
2022/11/12 13:07:06;;;;;;;;;;;10.70;99.90;;;;;;5065078;28;20038;-72
2022/11/12 13:09:32;;;;;;;;;;;10.80;99.90;;;;;;5066577;28;20015;-72
2022/11/12 13:14:38;;;;;;;;;;;10.80;99.90;;;;;;5054892;28;19928;-72
2022/11/12 13:17:04;;;;;;;;;;;10.60;99.90;;;;;;5073392;28;19921;-71
2022/11/12 13:19:48;;;;;;;;;;;10.70;99.90;;;;;;5075870;28;20305;-72
2022/11/12 13:22:17;;;;;;;;;;;10.50;99.90;;;;;;5074580;28;19967;-72
2022/11/12 13:25:01;;;;;;;;;;;10.60;99.90;;;;;;5056769;28;19924;-72
2022/11/12 13:27:39;;;;;;;;;;;10.40;99.90;;;;;;5057318;28;19931;-72
2022/11/12 13:30:06;;;;;;;;;;;10.80;99.90;;;;;;5034196;28;19948;-72
2022/11/12 13:32:50;;;;;;;;;;;10.60;99.90;;;;;;5048980;28;19921;-72
2022/11/12 13:35:16;;;;;;;;;;;10.50;99.90;;;;;;5053566;28;20306;-71
2022/11/12 13:37:44;;;;;;;;;;;10.50;99.90;;;;;;5054113;28;20075;-72
2022/11/12 13:40:33;;;;;;;;;;;10.60;99.90;;;;;;5055517;28;19968;-72
2022/11/12 13:42:59;;;;;;;;;;;;;;;;;;5045725;28;19921;-71
2022/11/12 13:45:25;;;;;;;;;;;10.60;99.90;;;;;;5053080;28;19931;-72
2022/11/12 13:47:51;;;;;;;;;;;10.90;99.90;;;;;;5056314;28;19927;-71
2022/11/12 13:50:22;;;;;;;;;;;10.70;99.90;;;;;;5054127;28;19924;-71
2022/11/12 13:52:47;;;;;;;;;;;10.60;99.90;;;;;;5054074;28;19982;-72
2022/11/12 13:55:17;;;;;;;;;;;10.60;99.90;;;;;;5054249;28;19925;-71
2022/11/12 13:57:53;;;;;;;;;;;10.70;99.90;;;;;;5054963;28;19974;-71
2022/11/12 14:00:21;;;;;;;;;;;10.70;99.90;;;;;;5053842;28;20329;-71
2022/11/12 14:02:58;;;;;;;;;;;10.90;99.90;;;;;;5036993;28;20019;-72
2022/11/12 14:05:28;;;;;;;;;;;10.80;99.90;;;;;;5053934;28;20298;-72
2022/11/12 14:08:12;;;;;;;;;;;10.70;99.90;;;;;;5036753;28;19921;-74
2022/11/12 14:10:53;;;;;;;;;;;10.80;99.90;;;;;;5042348;28;20446;-73
2022/11/12 14:13:18;;;;;;;;;;;10.70;99.90;;;;;;5049922;28;20007;-74
2022/11/12 14:15:44;;;;;;;;;;;10.90;99.90;;;;;;5065657;28;20015;-72
2022/11/12 14:18:09;;;;;;;;;;;10.70;99.90;;;;;;5046690;28;19951;-71
2022/11/12 14:20:36;;;;;;;;;;;10.90;99.90;;;;;;5050199;28;20392;-71
2022/11/12 14:23:10;;;;;;;;;;;10.90;99.90;;;;;;5052745;28;19976;-71
2022/11/12 14:25:44;;;;;;;;;;;10.70;99.90;;;;;;5050528;28;20350;-72
2022/11/12 14:28:24;;;;;;;;;;;10.90;99.90;;;;;;5055871;28;19920;-71
2022/11/12 14:30:49;;;;;;;;;;;10.90;99.90;;;;;;5050201;28;20401;-71
2022/11/12 14:33:22;;;;;;;;;;;10.80;99.90;;;;;;5052884;28;19920;-71
2022/11/12 14:35:48;;;;;;;;;;;10.70;99.90;;;;;;5053286;28;20027;-71
2022/11/12 14:38:14;;;;;;;;;;;;;;;;;;5053029;28;20476;-71
2022/11/12 14:41:19;;;;;;;;;;;10.90;99.90;;;;;;5051464;28;19928;-72
2022/11/12 14:43:54;;;;;;;;;;;10.70;99.90;;;;;;4956581;28;20080;-71
2022/11/12 14:46:24;;;;;;;;;;;10.80;99.90;;;;;;4972219;28;19961;-71
2022/11/12 14:49:01;;;;;;;;;;;10.90;99.90;;;;;;4992873;28;19920;-71
2022/11/12 14:51:29;;;;;;;;;;;10.80;99.90;;;;;;5050290;28;20031;-72
2022/11/12 14:53:56;;;;;;;;;;;10.90;99.90;;;;;;5049510;28;19968;-72
2022/11/12 14:56:26;;;;;;;;;;;10.70;99.90;;;;;;5051139;28;19921;-72
2022/11/12 14:58:52;;;;;;;;;;;;;;;;;;5043111;28;19927;-72
2022/11/12 15:01:17;;;;;;;;;;;10.70;99.90;;;;;;5032873;28;20007;-71
2022/11/12 15:03:43;;;;;;;;;;;;;;;;;;5049373;28;19970;-72
2022/11/12 15:06:10;;;;;;;;;;;10.70;99.90;;;;;;5055899;28;19963;-72
2022/11/12 15:08:37;;;;;;;;;;;10.60;99.90;;;;;;5052049;28;19928;-72
2022/11/12 15:11:17;;;;;;;;;;;10.70;99.90;;;;;;5050742;28;19928;-71
2022/11/12 15:13:43;;;;;;;;;;;;;;;;;;5051897;28;19925;-71
2022/11/12 15:16:09;;;;;;;;;;;10.50;99.90;;;;;;5051402;28;19921;-72
2022/11/12 15:18:35;;;;;;;;;;;10.50;99.90;;;;;;5072304;28;19920;-72